sensor_id;sensor_type;location;lat;lon;timestamp;P1;durP1;ratioP1;P2;durP2;ratioP2
4452;SDS011;2239;48.152;11.584;2024-01-11T00:01:32;31.55;;;6.88;;
4452;SDS011;2239;48.152;11.584;2024-01-11T00:03:58;18.97;;;6.63;;
4452;SDS011;2239;48.152;11.584;2024-01-11T00:06:23;18.57;;;6.37;;
4452;SDS011;2239;48.152;11.584;2024-01-11T00:08:49;24.77;;;7.00;;
4452;SDS011;2239;48.152;11.584;2024-01-11T00:11:14;18.80;;;7.67;;
4452;SDS011;2239;48.152;11.584;2024-01-11T00:13:40;12.47;;;4.20;;
4452;SDS011;2239;48.152;11.584;2024-01-11T00:16:05;32.00;;;6.73;;
4452;SDS011;2239;48.152;11.584;2024-01-11T00:18:31;16.83;;;4.77;;
4452;SDS011;2239;48.152;11.584;2024-01-11T00:20:56;33.63;;;7.10;;
4452;SDS011;2239;48.152;11.584;2024-01-11T00:23:22;18.97;;;6.80;;
4452;SDS011;2239;48.152;11.584;2024-01-11T00:25:48;25.27;;;5.97;;
4452;SDS011;2239;48.152;11.584;2024-01-11T00:28:13;22.00;;;7.17;;
4452;SDS011;2239;48.152;11.584;2024-01-11T00:30:39;22.33;;;5.70;;
4452;SDS011;2239;48.152;11.584;2024-01-11T00:33:04;34.47;;;6.60;;
4452;SDS011;2239;48.152;11.584;2024-01-11T00:35:31;10.75;;;4.38;;
4452;SDS011;2239;48.152;11.584;2024-01-11T00:37:57;21.17;;;6.40;;
4452;SDS011;2239;48.152;11.584;2024-01-11T00:40:22;10.40;;;3.83;;
4452;SDS011;2239;48.152;11.584;2024-01-11T00:42:51;19.85;;;5.40;;
4452;SDS011;2239;48.152;11.584;2024-01-11T00:45:16;21.60;;;6.43;;
4452;SDS011;2239;48.152;11.584;2024-01-11T00:47:43;29.27;;;8.70;;
4452;SDS011;2239;48.152;11.584;2024-01-11T00:50:08;21.13;;;7.37;;
4452;SDS011;2239;48.152;11.584;2024-01-11T00:52:34;16.37;;;4.13;;
4452;SDS011;2239;48.152;11.584;2024-01-11T00:55:00;23.43;;;7.00;;
4452;SDS011;2239;48.152;11.584;2024-01-11T00:57:25;16.10;;;6.53;;
4452;SDS011;2239;48.152;11.584;2024-01-11T00:59:51;13.37;;;5.40;;
4452;SDS011;2239;48.152;11.584;2024-01-11T01:02:16;27.33;;;7.57;;
4452;SDS011;2239;48.152;11.584;2024-01-11T01:04:44;23.67;;;7.03;;
4452;SDS011;2239;48.152;11.584;2024-01-11T01:07:09;9.70;;;4.13;;
4452;SDS011;2239;48.152;11.584;2024-01-11T01:09:35;16.20;;;6.10;;
4452;SDS011;2239;48.152;11.584;2024-01-11T01:12:01;25.73;;;6.10;;
4452;SDS011;2239;48.152;11.584;2024-01-11T01:14:26;26.13;;;7.10;;
4452;SDS011;2239;48.152;11.584;2024-01-11T01:16:52;17.10;;;5.03;;
4452;SDS011;2239;48.152;11.584;2024-01-11T01:19:17;21.47;;;7.00;;
4452;SDS011;2239;48.152;11.584;2024-01-11T01:21:43;21.10;;;6.93;;
4452;SDS011;2239;48.152;11.584;2024-01-11T01:24:08;22.93;;;6.23;;
4452;SDS011;2239;48.152;11.584;2024-01-11T01:26:34;28.57;;;5.77;;
4452;SDS011;2239;48.152;11.584;2024-01-11T01:29:00;25.70;;;7.63;;
4452;SDS011;2239;48.152;11.584;2024-01-11T01:31:26;28.13;;;6.77;;
4452;SDS011;2239;48.152;11.584;2024-01-11T01:33:51;18.83;;;5.30;;
4452;SDS011;2239;48.152;11.584;2024-01-11T01:36:17;16.93;;;5.07;;
4452;SDS011;2239;48.152;11.584;2024-01-11T01:38:42;42.10;;;8.40;;
4452;SDS011;2239;48.152;11.584;2024-01-11T01:41:08;33.50;;;6.07;;
4452;SDS011;2239;48.152;11.584;2024-01-11T01:43:33;24.57;;;7.87;;
4452;SDS011;2239;48.152;11.584;2024-01-11T01:45:59;31.70;;;6.57;;
4452;SDS011;2239;48.152;11.584;2024-01-11T01:48:25;23.73;;;6.75;;
4452;SDS011;2239;48.152;11.584;2024-01-11T01:50:52;26.95;;;7.47;;
4452;SDS011;2239;48.152;11.584;2024-01-11T01:53:18;20.67;;;5.03;;
4452;SDS011;2239;48.152;11.584;2024-01-11T01:55:46;22.67;;;6.65;;
4452;SDS011;2239;48.152;11.584;2024-01-11T01:58:13;27.77;;;7.25;;
4452;SDS011;2239;48.152;11.584;2024-01-11T02:00:39;25.02;;;7.65;;
4452;SDS011;2239;48.152;11.584;2024-01-11T02:03:06;24.10;;;6.20;;
4452;SDS011;2239;48.152;11.584;2024-01-11T02:05:33;16.27;;;5.53;;
4452;SDS011;2239;48.152;11.584;2024-01-11T02:08:00;16.55;;;5.47;;
4452;SDS011;2239;48.152;11.584;2024-01-11T02:10:28;21.70;;;4.78;;
4452;SDS011;2239;48.152;11.584;2024-01-11T02:12:57;25.63;;;7.00;;
4452;SDS011;2239;48.152;11.584;2024-01-11T02:15:23;19.63;;;5.63;;
4452;SDS011;2239;48.152;11.584;2024-01-11T02:17:49;14.93;;;5.37;;
4452;SDS011;2239;48.152;11.584;2024-01-11T02:20:15;10.37;;;3.23;;
4452;SDS011;2239;48.152;11.584;2024-01-11T02:22:40;15.07;;;5.50;;
4452;SDS011;2239;48.152;11.584;2024-01-11T02:25:11;15.73;;;4.93;;
4452;SDS011;2239;48.152;11.584;2024-01-11T02:27:49;17.40;;;4.40;;
4452;SDS011;2239;48.152;11.584;2024-01-11T02:30:15;19.15;;;6.43;;
4452;SDS011;2239;48.152;11.584;2024-01-11T02:32:45;19.20;;;6.00;;
4452;SDS011;2239;48.152;11.584;2024-01-11T02:35:12;17.95;;;5.88;;
4452;SDS011;2239;48.152;11.584;2024-01-11T02:37:40;20.48;;;4.82;;
4452;SDS011;2239;48.152;11.584;2024-01-11T02:40:08;22.97;;;5.17;;
4452;SDS011;2239;48.152;11.584;2024-01-11T02:42:34;14.77;;;4.28;;
4452;SDS011;2239;48.152;11.584;2024-01-11T02:45:00;9.73;;;4.15;;
4452;SDS011;2239;48.152;11.584;2024-01-11T02:47:29;14.25;;;5.80;;
4452;SDS011;2239;48.152;11.584;2024-01-11T02:49:55;23.33;;;6.40;;
4452;SDS011;2239;48.152;11.584;2024-01-11T02:52:22;11.50;;;5.20;;
4452;SDS011;2239;48.152;11.584;2024-01-11T02:54:48;28.10;;;5.90;;
4452;SDS011;2239;48.152;11.584;2024-01-11T02:57:13;14.90;;;5.40;;
4452;SDS011;2239;48.152;11.584;2024-01-11T02:59:39;29.13;;;3.83;;
4452;SDS011;2239;48.152;11.584;2024-01-11T03:02:05;15.98;;;4.72;;
4452;SDS011;2239;48.152;11.584;2024-01-11T03:04:31;16.43;;;5.07;;
4452;SDS011;2239;48.152;11.584;2024-01-11T03:06:57;24.83;;;5.10;;
4452;SDS011;2239;48.152;11.584;2024-01-11T03:09:22;12.97;;;5.33;;
4452;SDS011;2239;48.152;11.584;2024-01-11T03:11:48;12.13;;;4.50;;
4452;SDS011;2239;48.152;11.584;2024-01-11T03:14:13;18.17;;;5.90;;
4452;SDS011;2239;48.152;11.584;2024-01-11T03:16:39;19.40;;;5.37;;
4452;SDS011;2239;48.152;11.584;2024-01-11T03:19:05;21.07;;;5.10;;
4452;SDS011;2239;48.152;11.584;2024-01-11T03:21:30;14.32;;;4.60;;
4452;SDS011;2239;48.152;11.584;2024-01-11T03:23:56;15.60;;;5.23;;
4452;SDS011;2239;48.152;11.584;2024-01-11T03:26:22;20.13;;;6.13;;
4452;SDS011;2239;48.152;11.584;2024-01-11T03:28:47;9.20;;;3.73;;
4452;SDS011;2239;48.152;11.584;2024-01-11T03:31:13;11.83;;;4.37;;
4452;SDS011;2239;48.152;11.584;2024-01-11T03:33:38;20.83;;;5.33;;
4452;SDS011;2239;48.152;11.584;2024-01-11T03:36:11;11.93;;;4.60;;
4452;SDS011;2239;48.152;11.584;2024-01-11T03:38:37;23.83;;;5.90;;
4452;SDS011;2239;48.152;11.584;2024-01-11T03:41:09;18.33;;;6.33;;
4452;SDS011;2239;48.152;11.584;2024-01-11T03:43:35;18.30;;;5.40;;
4452;SDS011;2239;48.152;11.584;2024-01-11T03:46:01;23.52;;;7.47;;
4452;SDS011;2239;48.152;11.584;2024-01-11T03:48:27;19.13;;;7.75;;
4452;SDS011;2239;48.152;11.584;2024-01-11T03:50:53;15.50;;;5.63;;
4452;SDS011;2239;48.152;11.584;2024-01-11T03:53:19;16.57;;;4.90;;
4452;SDS011;2239;48.152;11.584;2024-01-11T03:55:44;17.57;;;5.17;;
4452;SDS011;2239;48.152;11.584;2024-01-11T03:58:10;14.43;;;4.80;;
4452;SDS011;2239;48.152;11.584;2024-01-11T04:00:35;18.27;;;6.07;;
4452;SDS011;2239;48.152;11.584;2024-01-11T04:03:01;16.17;;;5.10;;
4452;SDS011;2239;48.152;11.584;2024-01-11T04:05:27;18.73;;;7.10;;
4452;SDS011;2239;48.152;11.584;2024-01-11T04:07:52;18.17;;;6.13;;
4452;SDS011;2239;48.152;11.584;2024-01-11T04:10:18;13.27;;;4.70;;
4452;SDS011;2239;48.152;11.584;2024-01-11T04:12:47;25.15;;;5.05;;
4452;SDS011;2239;48.152;11.584;2024-01-11T04:15:13;25.73;;;7.38;;
4452;SDS011;2239;48.152;11.584;2024-01-11T04:17:39;30.65;;;6.43;;
4452;SDS011;2239;48.152;11.584;2024-01-11T04:20:05;19.53;;;5.57;;
4452;SDS011;2239;48.152;11.584;2024-01-11T04:22:32;17.80;;;7.50;;
4452;SDS011;2239;48.152;11.584;2024-01-11T04:24:57;26.70;;;6.23;;
4452;SDS011;2239;48.152;11.584;2024-01-11T04:27:23;12.47;;;3.70;;
4452;SDS011;2239;48.152;11.584;2024-01-11T04:29:48;23.33;;;5.30;;
4452;SDS011;2239;48.152;11.584;2024-01-11T04:32:14;20.10;;;5.10;;
4452;SDS011;2239;48.152;11.584;2024-01-11T04:34:39;16.70;;;5.17;;
4452;SDS011;2239;48.152;11.584;2024-01-11T04:37:05;13.93;;;6.07;;
4452;SDS011;2239;48.152;11.584;2024-01-11T04:39:31;19.48;;;6.28;;
4452;SDS011;2239;48.152;11.584;2024-01-11T04:41:57;17.27;;;5.97;;
4452;SDS011;2239;48.152;11.584;2024-01-11T04:44:22;14.00;;;5.27;;
4452;SDS011;2239;48.152;11.584;2024-01-11T04:46:48;14.00;;;4.80;;
4452;SDS011;2239;48.152;11.584;2024-01-11T04:49:13;16.53;;;5.80;;
4452;SDS011;2239;48.152;11.584;2024-01-11T04:51:39;10.27;;;4.10;;
4452;SDS011;2239;48.152;11.584;2024-01-11T04:54:04;12.67;;;4.77;;
4452;SDS011;2239;48.152;11.584;2024-01-11T04:56:30;16.83;;;6.00;;
4452;SDS011;2239;48.152;11.584;2024-01-11T04:58:56;12.80;;;5.40;;
4452;SDS011;2239;48.152;11.584;2024-01-11T05:01:21;23.20;;;5.57;;
4452;SDS011;2239;48.152;11.584;2024-01-11T05:03:47;21.17;;;6.00;;
4452;SDS011;2239;48.152;11.584;2024-01-11T05:06:17;20.40;;;5.35;;
4452;SDS011;2239;48.152;11.584;2024-01-11T05:08:44;17.92;;;5.40;;
4452;SDS011;2239;48.152;11.584;2024-01-11T05:11:15;10.80;;;3.95;;
4452;SDS011;2239;48.152;11.584;2024-01-11T05:13:42;15.15;;;3.63;;
4452;SDS011;2239;48.152;11.584;2024-01-11T05:16:15;17.13;;;4.70;;
4452;SDS011;2239;48.152;11.584;2024-01-11T05:18:54;14.57;;;5.93;;
4452;SDS011;2239;48.152;11.584;2024-01-11T05:21:21;14.65;;;5.70;;
4452;SDS011;2239;48.152;11.584;2024-01-11T05:23:47;21.90;;;6.72;;
4452;SDS011;2239;48.152;11.584;2024-01-11T05:26:14;10.48;;;4.72;;
4452;SDS011;2239;48.152;11.584;2024-01-11T05:28:40;18.80;;;5.35;;
4452;SDS011;2239;48.152;11.584;2024-01-11T05:31:09;25.10;;;4.70;;
4452;SDS011;2239;48.152;11.584;2024-01-11T05:33:36;12.85;;;4.00;;
4452;SDS011;2239;48.152;11.584;2024-01-11T05:36:02;12.63;;;5.15;;
4452;SDS011;2239;48.152;11.584;2024-01-11T05:38:28;12.90;;;5.17;;
4452;SDS011;2239;48.152;11.584;2024-01-11T05:40:54;10.30;;;4.73;;
4452;SDS011;2239;48.152;11.584;2024-01-11T05:43:19;16.53;;;5.20;;
4452;SDS011;2239;48.152;11.584;2024-01-11T05:45:45;10.53;;;4.13;;
4452;SDS011;2239;48.152;11.584;2024-01-11T05:48:10;18.83;;;4.97;;
4452;SDS011;2239;48.152;11.584;2024-01-11T05:50:36;12.53;;;4.17;;
4452;SDS011;2239;48.152;11.584;2024-01-11T05:53:02;15.20;;;6.13;;
4452;SDS011;2239;48.152;11.584;2024-01-11T05:55:28;17.53;;;5.23;;
4452;SDS011;2239;48.152;11.584;2024-01-11T05:57:53;17.90;;;5.27;;
4452;SDS011;2239;48.152;11.584;2024-01-11T06:00:19;20.73;;;4.87;;
4452;SDS011;2239;48.152;11.584;2024-01-11T06:02:45;19.50;;;4.20;;
4452;SDS011;2239;48.152;11.584;2024-01-11T06:05:10;16.77;;;5.20;;
4452;SDS011;2239;48.152;11.584;2024-01-11T06:07:37;17.30;;;4.40;;
4452;SDS011;2239;48.152;11.584;2024-01-11T06:10:03;13.47;;;4.73;;
4452;SDS011;2239;48.152;11.584;2024-01-11T06:12:30;12.60;;;4.15;;
4452;SDS011;2239;48.152;11.584;2024-01-11T06:14:57;20.80;;;5.30;;
4452;SDS011;2239;48.152;11.584;2024-01-11T06:17:22;20.07;;;5.07;;
4452;SDS011;2239;48.152;11.584;2024-01-11T06:19:48;25.40;;;6.03;;
4452;SDS011;2239;48.152;11.584;2024-01-11T06:22:14;17.30;;;5.90;;
4452;SDS011;2239;48.152;11.584;2024-01-11T06:24:40;19.60;;;5.27;;
4452;SDS011;2239;48.152;11.584;2024-01-11T06:27:05;22.57;;;4.97;;
4452;SDS011;2239;48.152;11.584;2024-01-11T06:29:31;10.67;;;4.63;;
4452;SDS011;2239;48.152;11.584;2024-01-11T06:31:56;6.83;;;2.60;;
4452;SDS011;2239;48.152;11.584;2024-01-11T06:34:22;13.33;;;4.27;;
4452;SDS011;2239;48.152;11.584;2024-01-11T06:36:48;9.40;;;4.67;;
4452;SDS011;2239;48.152;11.584;2024-01-11T06:39:13;11.27;;;4.60;;
4452;SDS011;2239;48.152;11.584;2024-01-11T06:41:39;8.90;;;4.13;;
4452;SDS011;2239;48.152;11.584;2024-01-11T06:44:05;12.17;;;4.10;;
4452;SDS011;2239;48.152;11.584;2024-01-11T06:46:30;9.30;;;4.03;;
4452;SDS011;2239;48.152;11.584;2024-01-11T06:48:56;14.20;;;4.10;;
4452;SDS011;2239;48.152;11.584;2024-01-11T06:51:22;15.97;;;4.80;;
4452;SDS011;2239;48.152;11.584;2024-01-11T06:53:48;13.90;;;5.38;;
4452;SDS011;2239;48.152;11.584;2024-01-11T06:56:18;10.48;;;4.35;;
4452;SDS011;2239;48.152;11.584;2024-01-11T06:58:45;16.90;;;5.15;;
4452;SDS011;2239;48.152;11.584;2024-01-11T07:01:11;13.35;;;4.35;;
4452;SDS011;2239;48.152;11.584;2024-01-11T07:03:38;13.10;;;3.72;;
4452;SDS011;2239;48.152;11.584;2024-01-11T07:06:04;18.10;;;4.20;;
4452;SDS011;2239;48.152;11.584;2024-01-11T07:08:30;13.15;;;5.30;;
4452;SDS011;2239;48.152;11.584;2024-01-11T07:10:57;11.48;;;3.78;;
4452;SDS011;2239;48.152;11.584;2024-01-11T07:13:23;25.85;;;4.10;;
4452;SDS011;2239;48.152;11.584;2024-01-11T07:15:49;11.03;;;4.40;;
4452;SDS011;2239;48.152;11.584;2024-01-11T07:18:16;11.20;;;4.70;;
4452;SDS011;2239;48.152;11.584;2024-01-11T07:20:42;25.77;;;5.63;;
4452;SDS011;2239;48.152;11.584;2024-01-11T07:23:09;16.75;;;4.72;;
4452;SDS011;2239;48.152;11.584;2024-01-11T07:25:34;10.80;;;2.87;;
4452;SDS011;2239;48.152;11.584;2024-01-11T07:28:00;15.60;;;4.47;;
4452;SDS011;2239;48.152;11.584;2024-01-11T07:30:26;7.43;;;3.65;;
4452;SDS011;2239;48.152;11.584;2024-01-11T07:32:52;11.13;;;4.23;;
4452;SDS011;2239;48.152;11.584;2024-01-11T07:35:17;17.53;;;3.97;;
4452;SDS011;2239;48.152;11.584;2024-01-11T07:37:43;12.73;;;4.33;;
4452;SDS011;2239;48.152;11.584;2024-01-11T07:40:09;7.33;;;3.23;;
4452;SDS011;2239;48.152;11.584;2024-01-11T07:42:37;9.43;;;4.75;;
4452;SDS011;2239;48.152;11.584;2024-01-11T07:45:04;19.42;;;5.40;;
4452;SDS011;2239;48.152;11.584;2024-01-11T07:47:30;7.90;;;4.43;;
4452;SDS011;2239;48.152;11.584;2024-01-11T07:49:56;17.47;;;5.80;;
4452;SDS011;2239;48.152;11.584;2024-01-11T07:52:21;19.47;;;4.70;;
4452;SDS011;2239;48.152;11.584;2024-01-11T07:54:47;18.20;;;4.43;;
4452;SDS011;2239;48.152;11.584;2024-01-11T07:57:12;12.40;;;4.70;;
4452;SDS011;2239;48.152;11.584;2024-01-11T07:59:38;20.97;;;4.00;;
4452;SDS011;2239;48.152;11.584;2024-01-11T08:02:04;12.30;;;5.03;;
4452;SDS011;2239;48.152;11.584;2024-01-11T08:04:31;16.70;;;3.53;;
4452;SDS011;2239;48.152;11.584;2024-01-11T08:06:56;12.53;;;4.43;;
4452;SDS011;2239;48.152;11.584;2024-01-11T08:09:24;11.55;;;4.47;;
4452;SDS011;2239;48.152;11.584;2024-01-11T08:11:50;14.20;;;4.25;;
4452;SDS011;2239;48.152;11.584;2024-01-11T08:14:17;15.07;;;4.70;;
4452;SDS011;2239;48.152;11.584;2024-01-11T08:16:43;22.30;;;5.30;;
4452;SDS011;2239;48.152;11.584;2024-01-11T08:19:08;17.47;;;5.33;;
4452;SDS011;2239;48.152;11.584;2024-01-11T08:21:35;23.77;;;5.78;;
4452;SDS011;2239;48.152;11.584;2024-01-11T08:24:01;23.50;;;5.43;;
4452;SDS011;2239;48.152;11.584;2024-01-11T08:26:27;17.27;;;5.82;;
4452;SDS011;2239;48.152;11.584;2024-01-11T08:28:54;17.30;;;5.80;;
4452;SDS011;2239;48.152;11.584;2024-01-11T08:31:20;40.40;;;8.30;;
4452;SDS011;2239;48.152;11.584;2024-01-11T08:33:46;21.27;;;5.33;;
4452;SDS011;2239;48.152;11.584;2024-01-11T08:36:11;19.77;;;5.90;;
4452;SDS011;2239;48.152;11.584;2024-01-11T08:38:38;15.70;;;4.57;;
4452;SDS011;2239;48.152;11.584;2024-01-11T08:41:04;16.50;;;4.78;;
4452;SDS011;2239;48.152;11.584;2024-01-11T08:43:30;16.90;;;4.77;;
4452;SDS011;2239;48.152;11.584;2024-01-11T08:45:55;16.90;;;4.90;;
4452;SDS011;2239;48.152;11.584;2024-01-11T08:48:21;13.13;;;4.20;;
4452;SDS011;2239;48.152;11.584;2024-01-11T08:50:46;12.37;;;5.00;;
4452;SDS011;2239;48.152;11.584;2024-01-11T08:53:12;16.13;;;6.20;;
4452;SDS011;2239;48.152;11.584;2024-01-11T08:55:37;9.23;;;2.17;;
4452;SDS011;2239;48.152;11.584;2024-01-11T08:58:03;10.37;;;4.57;;
4452;SDS011;2239;48.152;11.584;2024-01-11T09:00:29;25.67;;;7.07;;
4452;SDS011;2239;48.152;11.584;2024-01-11T09:02:55;21.13;;;6.40;;
4452;SDS011;2239;48.152;11.584;2024-01-11T09:05:20;21.30;;;6.83;;
4452;SDS011;2239;48.152;11.584;2024-01-11T09:07:46;13.53;;;4.27;;
4452;SDS011;2239;48.152;11.584;2024-01-11T09:10:12;11.93;;;4.20;;
4452;SDS011;2239;48.152;11.584;2024-01-11T09:12:53;10.57;;;5.35;;
4452;SDS011;2239;48.152;11.584;2024-01-11T09:15:19;20.73;;;3.88;;
4452;SDS011;2239;48.152;11.584;2024-01-11T09:17:45;24.90;;;7.20;;
4452;SDS011;2239;48.152;11.584;2024-01-11T09:20:11;24.88;;;7.03;;
4452;SDS011;2239;48.152;11.584;2024-01-11T09:22:39;25.88;;;7.43;;
4452;SDS011;2239;48.152;11.584;2024-01-11T09:25:04;17.70;;;5.23;;
4452;SDS011;2239;48.152;11.584;2024-01-11T09:27:32;36.00;;;9.20;;
4452;SDS011;2239;48.152;11.584;2024-01-11T09:29:57;32.33;;;7.83;;
4452;SDS011;2239;48.152;11.584;2024-01-11T09:32:23;25.43;;;6.93;;
4452;SDS011;2239;48.152;11.584;2024-01-11T09:34:48;26.00;;;5.90;;
4452;SDS011;2239;48.152;11.584;2024-01-11T09:37:15;40.97;;;8.10;;
4452;SDS011;2239;48.152;11.584;2024-01-11T09:39:41;33.00;;;9.20;;
4452;SDS011;2239;48.152;11.584;2024-01-11T09:42:08;33.58;;;9.93;;
4452;SDS011;2239;48.152;11.584;2024-01-11T09:44:37;32.47;;;9.02;;
4452;SDS011;2239;48.152;11.584;2024-01-11T09:47:04;35.47;;;10.38;;
4452;SDS011;2239;48.152;11.584;2024-01-11T09:49:31;34.13;;;9.40;;
4452;SDS011;2239;48.152;11.584;2024-01-11T09:51:59;27.98;;;9.35;;
4452;SDS011;2239;48.152;11.584;2024-01-11T09:54:26;48.17;;;10.15;;
4452;SDS011;2239;48.152;11.584;2024-01-11T09:56:53;48.00;;;11.68;;
4452;SDS011;2239;48.152;11.584;2024-01-11T09:59:20;28.63;;;8.77;;
4452;SDS011;2239;48.152;11.584;2024-01-11T10:01:49;30.55;;;10.23;;
4452;SDS011;2239;48.152;11.584;2024-01-11T10:04:15;39.13;;;12.32;;
4452;SDS011;2239;48.152;11.584;2024-01-11T10:06:41;33.53;;;8.95;;
4452;SDS011;2239;48.152;11.584;2024-01-11T10:09:08;36.50;;;9.90;;
4452;SDS011;2239;48.152;11.584;2024-01-11T10:11:34;37.22;;;10.00;;
4452;SDS011;2239;48.152;11.584;2024-01-11T10:14:00;37.93;;;9.30;;
4452;SDS011;2239;48.152;11.584;2024-01-11T10:16:27;29.70;;;8.82;;
4452;SDS011;2239;48.152;11.584;2024-01-11T10:18:54;40.17;;;10.55;;
4452;SDS011;2239;48.152;11.584;2024-01-11T10:21:20;29.20;;;8.82;;
4452;SDS011;2239;48.152;11.584;2024-01-11T10:23:46;42.03;;;11.52;;
4452;SDS011;2239;48.152;11.584;2024-01-11T10:26:13;53.53;;;11.63;;
4452;SDS011;2239;48.152;11.584;2024-01-11T10:28:44;39.55;;;10.85;;
4452;SDS011;2239;48.152;11.584;2024-01-11T10:31:10;53.45;;;11.05;;
4452;SDS011;2239;48.152;11.584;2024-01-11T10:33:35;32.77;;;11.43;;
4452;SDS011;2239;48.152;11.584;2024-01-11T10:36:01;40.77;;;10.60;;
4452;SDS011;2239;48.152;11.584;2024-01-11T10:38:26;40.50;;;9.87;;
4452;SDS011;2239;48.152;11.584;2024-01-11T10:40:55;46.15;;;10.90;;
4452;SDS011;2239;48.152;11.584;2024-01-11T10:43:25;35.08;;;10.40;;
4452;SDS011;2239;48.152;11.584;2024-01-11T10:45:51;32.95;;;9.85;;
4452;SDS011;2239;48.152;11.584;2024-01-11T10:48:23;31.17;;;9.70;;
4452;SDS011;2239;48.152;11.584;2024-01-11T10:50:54;27.70;;;8.40;;
4452;SDS011;2239;48.152;11.584;2024-01-11T10:56:11;45.22;;;9.07;;
4452;SDS011;2239;48.152;11.584;2024-01-11T10:58:39;39.60;;;9.25;;
4452;SDS011;2239;48.152;11.584;2024-01-11T11:01:06;24.00;;;8.35;;
4452;SDS011;2239;48.152;11.584;2024-01-11T11:03:33;29.10;;;8.60;;
4452;SDS011;2239;48.152;11.584;2024-01-11T11:06:00;30.40;;;8.30;;
4452;SDS011;2239;48.152;11.584;2024-01-11T11:08:27;40.78;;;9.98;;
4452;SDS011;2239;48.152;11.584;2024-01-11T11:10:54;36.70;;;10.10;;
4452;SDS011;2239;48.152;11.584;2024-01-11T11:13:22;28.77;;;11.07;;
4452;SDS011;2239;48.152;11.584;2024-01-11T11:15:48;29.87;;;11.47;;
4452;SDS011;2239;48.152;11.584;2024-01-11T11:18:14;39.97;;;10.25;;
4452;SDS011;2239;48.152;11.584;2024-01-11T11:20:41;39.70;;;8.48;;
4452;SDS011;2239;48.152;11.584;2024-01-11T11:23:07;33.95;;;10.23;;
4452;SDS011;2239;48.152;11.584;2024-01-11T11:25:37;32.47;;;9.95;;
4452;SDS011;2239;48.152;11.584;2024-01-11T11:28:05;42.65;;;10.32;;
4452;SDS011;2239;48.152;11.584;2024-01-11T11:30:32;40.00;;;10.02;;
4452;SDS011;2239;48.152;11.584;2024-01-11T11:33:01;33.90;;;9.10;;
4452;SDS011;2239;48.152;11.584;2024-01-11T11:35:33;34.33;;;9.82;;
4452;SDS011;2239;48.152;11.584;2024-01-11T11:37:59;38.67;;;10.40;;
4452;SDS011;2239;48.152;11.584;2024-01-11T11:40:40;33.00;;;9.40;;
4452;SDS011;2239;48.152;11.584;2024-01-11T11:43:07;36.10;;;9.18;;
4452;SDS011;2239;48.152;11.584;2024-01-11T11:45:33;36.47;;;10.70;;
4452;SDS011;2239;48.152;11.584;2024-01-11T11:47:59;38.20;;;10.10;;
4452;SDS011;2239;48.152;11.584;2024-01-11T11:50:25;25.63;;;8.63;;
4452;SDS011;2239;48.152;11.584;2024-01-11T11:52:54;37.53;;;11.73;;
4452;SDS011;2239;48.152;11.584;2024-01-11T11:55:22;46.35;;;10.35;;
4452;SDS011;2239;48.152;11.584;2024-01-11T11:57:51;37.03;;;10.65;;
4452;SDS011;2239;48.152;11.584;2024-01-11T12:00:20;33.70;;;9.55;;
4452;SDS011;2239;48.152;11.584;2024-01-11T12:02:49;41.77;;;11.80;;
4452;SDS011;2239;48.152;11.584;2024-01-11T12:05:16;42.65;;;11.95;;
4452;SDS011;2239;48.152;11.584;2024-01-11T12:07:43;36.22;;;10.82;;
4452;SDS011;2239;48.152;11.584;2024-01-11T12:10:10;46.60;;;11.82;;
4452;SDS011;2239;48.152;11.584;2024-01-11T12:12:35;50.13;;;12.20;;
4452;SDS011;2239;48.152;11.584;2024-01-11T12:15:02;43.85;;;11.15;;
4452;SDS011;2239;48.152;11.584;2024-01-11T12:17:29;35.85;;;9.98;;
4452;SDS011;2239;48.152;11.584;2024-01-11T12:19:55;33.87;;;10.03;;
4452;SDS011;2239;48.152;11.584;2024-01-11T12:22:20;31.03;;;10.10;;
4452;SDS011;2239;48.152;11.584;2024-01-11T12:24:46;45.20;;;11.30;;
4452;SDS011;2239;48.152;11.584;2024-01-11T12:27:12;35.42;;;9.60;;
4452;SDS011;2239;48.152;11.584;2024-01-11T12:29:40;36.23;;;10.90;;
4452;SDS011;2239;48.152;11.584;2024-01-11T12:32:07;35.75;;;11.90;;
4452;SDS011;2239;48.152;11.584;2024-01-11T12:34:35;44.42;;;10.30;;
4452;SDS011;2239;48.152;11.584;2024-01-11T12:37:01;41.37;;;13.27;;
4452;SDS011;2239;48.152;11.584;2024-01-11T12:39:30;56.80;;;10.98;;
4452;SDS011;2239;48.152;11.584;2024-01-11T12:41:56;39.43;;;9.90;;
4452;SDS011;2239;48.152;11.584;2024-01-11T12:44:22;38.53;;;11.93;;
4452;SDS011;2239;48.152;11.584;2024-01-11T12:46:49;29.30;;;10.68;;
4452;SDS011;2239;48.152;11.584;2024-01-11T12:49:15;33.90;;;10.93;;
4452;SDS011;2239;48.152;11.584;2024-01-11T12:51:41;39.73;;;10.47;;
4452;SDS011;2239;48.152;11.584;2024-01-11T12:54:10;40.07;;;12.17;;
4452;SDS011;2239;48.152;11.584;2024-01-11T12:56:40;51.67;;;12.27;;
4452;SDS011;2239;48.152;11.584;2024-01-11T12:59:10;49.40;;;10.77;;
4452;SDS011;2239;48.152;11.584;2024-01-11T13:01:37;35.92;;;10.77;;
4452;SDS011;2239;48.152;11.584;2024-01-11T13:04:04;38.88;;;11.50;;
4452;SDS011;2239;48.152;11.584;2024-01-11T13:06:30;50.55;;;13.35;;
4452;SDS011;2239;48.152;11.584;2024-01-11T13:08:56;45.50;;;11.82;;
4452;SDS011;2239;48.152;11.584;2024-01-11T13:11:22;35.43;;;10.63;;
4452;SDS011;2239;48.152;11.584;2024-01-11T13:13:49;37.70;;;9.93;;
4452;SDS011;2239;48.152;11.584;2024-01-11T13:16:16;40.38;;;11.73;;
4452;SDS011;2239;48.152;11.584;2024-01-11T13:18:43;41.95;;;11.73;;
4452;SDS011;2239;48.152;11.584;2024-01-11T13:21:09;37.65;;;11.95;;
4452;SDS011;2239;48.152;11.584;2024-01-11T13:23:37;48.00;;;10.85;;
4452;SDS011;2239;48.152;11.584;2024-01-11T13:26:03;49.67;;;13.20;;
4452;SDS011;2239;48.152;11.584;2024-01-11T13:28:29;42.05;;;10.40;;
4452;SDS011;2239;48.152;11.584;2024-01-11T13:30:55;44.37;;;12.53;;
4452;SDS011;2239;48.152;11.584;2024-01-11T13:33:21;43.55;;;11.98;;
4452;SDS011;2239;48.152;11.584;2024-01-11T13:35:48;31.92;;;11.07;;
4452;SDS011;2239;48.152;11.584;2024-01-11T13:38:14;42.70;;;11.40;;
4452;SDS011;2239;48.152;11.584;2024-01-11T13:40:40;50.67;;;12.30;;
4452;SDS011;2239;48.152;11.584;2024-01-11T13:43:08;38.30;;;10.73;;
4452;SDS011;2239;48.152;11.584;2024-01-11T13:45:34;32.35;;;11.40;;
4452;SDS011;2239;48.152;11.584;2024-01-11T13:48:03;39.80;;;11.75;;
4452;SDS011;2239;48.152;11.584;2024-01-11T13:50:30;47.45;;;14.20;;
4452;SDS011;2239;48.152;11.584;2024-01-11T13:52:56;43.37;;;10.60;;
4452;SDS011;2239;48.152;11.584;2024-01-11T13:55:21;38.73;;;10.93;;
4452;SDS011;2239;48.152;11.584;2024-01-11T13:57:47;47.40;;;13.17;;
4452;SDS011;2239;48.152;11.584;2024-01-11T14:00:14;43.13;;;10.52;;
4452;SDS011;2239;48.152;11.584;2024-01-11T14:02:42;41.17;;;13.57;;
4452;SDS011;2239;48.152;11.584;2024-01-11T14:05:08;48.50;;;11.60;;
4452;SDS011;2239;48.152;11.584;2024-01-11T14:07:36;39.83;;;12.05;;
4452;SDS011;2239;48.152;11.584;2024-01-11T14:10:03;33.25;;;9.32;;
4452;SDS011;2239;48.152;11.584;2024-01-11T14:12:30;52.47;;;13.48;;
4452;SDS011;2239;48.152;11.584;2024-01-11T14:14:56;49.03;;;14.37;;
4452;SDS011;2239;48.152;11.584;2024-01-11T14:17:22;46.00;;;13.83;;
4452;SDS011;2239;48.152;11.584;2024-01-11T14:19:48;43.43;;;12.43;;
4452;SDS011;2239;48.152;11.584;2024-01-11T14:22:13;45.03;;;12.70;;
4452;SDS011;2239;48.152;11.584;2024-01-11T14:24:39;48.27;;;11.13;;
4452;SDS011;2239;48.152;11.584;2024-01-11T14:27:05;41.13;;;12.60;;
4452;SDS011;2239;48.152;11.584;2024-01-11T14:29:31;39.27;;;12.03;;
4452;SDS011;2239;48.152;11.584;2024-01-11T14:31:56;53.27;;;12.30;;
4452;SDS011;2239;48.152;11.584;2024-01-11T14:34:22;43.60;;;12.37;;
4452;SDS011;2239;48.152;11.584;2024-01-11T14:36:49;53.53;;;12.80;;
4452;SDS011;2239;48.152;11.584;2024-01-11T14:39:14;46.47;;;12.90;;
4452;SDS011;2239;48.152;11.584;2024-01-11T14:41:40;42.43;;;11.87;;
4452;SDS011;2239;48.152;11.584;2024-01-11T14:44:05;46.37;;;14.00;;